sensor_id;sensor_type;location;lat;lon;timestamp;temperature;humidity
5134;DHT22;2585;48.696;10.066;2022-07-23T00:00:17;20.00;25.50
5134;DHT22;2585;48.696;10.066;2022-07-23T00:02:44;19.90;26.30
5134;DHT22;2585;48.696;10.066;2022-07-23T00:05:12;19.90;34.70
5134;DHT22;2585;48.696;10.066;2022-07-23T00:07:39;19.80;60.40
5134;DHT22;2585;48.696;10.066;2022-07-23T00:10:07;19.80;62.10
5134;DHT22;2585;48.696;10.066;2022-07-23T00:12:34;19.80;58.60
5134;DHT22;2585;48.696;10.066;2022-07-23T00:15:01;19.80;61.50
5134;DHT22;2585;48.696;10.066;2022-07-23T00:17:29;19.70;68.40
5134;DHT22;2585;48.696;10.066;2022-07-23T00:19:56;19.70;71.80
5134;DHT22;2585;48.696;10.066;2022-07-23T00:22:23;19.70;71.70
5134;DHT22;2585;48.696;10.066;2022-07-23T00:24:50;19.70;76.10
5134;DHT22;2585;48.696;10.066;2022-07-23T00:27:37;19.60;77.80
5134;DHT22;2585;48.696;10.066;2022-07-23T00:30:04;19.60;80.40
5134;DHT22;2585;48.696;10.066;2022-07-23T00:32:31;19.60;84.60
5134;DHT22;2585;48.696;10.066;2022-07-23T00:35:21;19.60;79.50
5134;DHT22;2585;48.696;10.066;2022-07-23T00:37:49;19.50;75.30
5134;DHT22;2585;48.696;10.066;2022-07-23T00:40:16;19.50;73.30
5134;DHT22;2585;48.696;10.066;2022-07-23T00:42:43;19.60;74.50
5134;DHT22;2585;48.696;10.066;2022-07-23T00:45:10;19.60;76.80
5134;DHT22;2585;48.696;10.066;2022-07-23T00:47:36;19.40;81.30
5134;DHT22;2585;48.696;10.066;2022-07-23T00:50:05;19.40;80.30
5134;DHT22;2585;48.696;10.066;2022-07-23T00:52:32;19.40;80.80
5134;DHT22;2585;48.696;10.066;2022-07-23T00:55:00;19.40;72.80
5134;DHT22;2585;48.696;10.066;2022-07-23T00:57:27;19.40;67.50
5134;DHT22;2585;48.696;10.066;2022-07-23T00:59:55;19.40;64.50
5134;DHT22;2585;48.696;10.066;2022-07-23T01:02:22;19.40;64.00
5134;DHT22;2585;48.696;10.066;2022-07-23T01:04:49;19.30;67.30
5134;DHT22;2585;48.696;10.066;2022-07-23T01:07:16;19.30;71.10
5134;DHT22;2585;48.696;10.066;2022-07-23T01:09:45;19.30;68.10
5134;DHT22;2585;48.696;10.066;2022-07-23T01:12:12;19.30;65.60
5134;DHT22;2585;48.696;10.066;2022-07-23T01:14:39;19.20;67.40
5134;DHT22;2585;48.696;10.066;2022-07-23T01:17:06;19.30;68.30
5134;DHT22;2585;48.696;10.066;2022-07-23T01:19:33;19.20;70.40
5134;DHT22;2585;48.696;10.066;2022-07-23T01:22:02;19.20;72.80
5134;DHT22;2585;48.696;10.066;2022-07-23T01:24:30;19.10;79.10
5134;DHT22;2585;48.696;10.066;2022-07-23T01:26:57;19.10;73.00
5134;DHT22;2585;48.696;10.066;2022-07-23T01:29:23;19.10;69.20
5134;DHT22;2585;48.696;10.066;2022-07-23T01:31:50;19.20;76.60
5134;DHT22;2585;48.696;10.066;2022-07-23T01:34:17;19.20;72.80
5134;DHT22;2585;48.696;10.066;2022-07-23T01:36:44;19.10;73.70
5134;DHT22;2585;48.696;10.066;2022-07-23T01:39:11;19.10;69.50
5134;DHT22;2585;48.696;10.066;2022-07-23T01:41:38;19.10;66.30
5134;DHT22;2585;48.696;10.066;2022-07-23T01:44:05;19.10;70.50
5134;DHT22;2585;48.696;10.066;2022-07-23T01:46:32;19.00;76.00
5134;DHT22;2585;48.696;10.066;2022-07-23T01:48:59;19.00;77.60
5134;DHT22;2585;48.696;10.066;2022-07-23T01:51:26;19.00;77.20
5134;DHT22;2585;48.696;10.066;2022-07-23T01:53:53;19.10;78.80
5134;DHT22;2585;48.696;10.066;2022-07-23T01:56:20;19.10;79.60
5134;DHT22;2585;48.696;10.066;2022-07-23T01:58:48;19.00;80.00
5134;DHT22;2585;48.696;10.066;2022-07-23T02:01:15;19.00;79.50
5134;DHT22;2585;48.696;10.066;2022-07-23T02:03:42;18.90;78.80
5134;DHT22;2585;48.696;10.066;2022-07-23T02:06:09;18.80;78.40
5134;DHT22;2585;48.696;10.066;2022-07-23T02:08:36;18.80;72.80
5134;DHT22;2585;48.696;10.066;2022-07-23T02:11:03;18.80;73.30
5134;DHT22;2585;48.696;10.066;2022-07-23T02:13:30;18.80;77.20
5134;DHT22;2585;48.696;10.066;2022-07-23T02:16:00;18.80;77.30
5134;DHT22;2585;48.696;10.066;2022-07-23T02:18:27;18.80;77.60
5134;DHT22;2585;48.696;10.066;2022-07-23T02:20:54;18.90;76.90
5134;DHT22;2585;48.696;10.066;2022-07-23T02:23:20;18.80;78.10
5134;DHT22;2585;48.696;10.066;2022-07-23T02:25:47;18.80;83.20
5134;DHT22;2585;48.696;10.066;2022-07-23T02:28:15;18.70;81.40
5134;DHT22;2585;48.696;10.066;2022-07-23T02:30:41;18.70;81.40
5134;DHT22;2585;48.696;10.066;2022-07-23T02:33:08;18.70;79.50
5134;DHT22;2585;48.696;10.066;2022-07-23T02:35:35;18.70;79.10
5134;DHT22;2585;48.696;10.066;2022-07-23T02:38:02;18.70;73.80
5134;DHT22;2585;48.696;10.066;2022-07-23T02:40:29;18.70;78.20
5134;DHT22;2585;48.696;10.066;2022-07-23T02:42:56;18.60;77.60
5134;DHT22;2585;48.696;10.066;2022-07-23T02:45:22;18.50;82.10
5134;DHT22;2585;48.696;10.066;2022-07-23T02:47:49;18.40;85.00
5134;DHT22;2585;48.696;10.066;2022-07-23T02:50:16;18.40;81.00
5134;DHT22;2585;48.696;10.066;2022-07-23T02:52:43;18.30;81.00
5134;DHT22;2585;48.696;10.066;2022-07-23T02:55:10;18.20;80.40
5134;DHT22;2585;48.696;10.066;2022-07-23T02:57:37;18.10;82.70
5134;DHT22;2585;48.696;10.066;2022-07-23T03:00:05;18.10;83.80
5134;DHT22;2585;48.696;10.066;2022-07-23T03:02:32;18.10;82.90
5134;DHT22;2585;48.696;10.066;2022-07-23T03:04:59;18.00;85.70
5134;DHT22;2585;48.696;10.066;2022-07-23T03:07:26;18.00;86.90
5134;DHT22;2585;48.696;10.066;2022-07-23T03:09:53;17.90;85.10
5134;DHT22;2585;48.696;10.066;2022-07-23T03:12:20;17.90;87.20
5134;DHT22;2585;48.696;10.066;2022-07-23T03:14:47;17.90;83.40
5134;DHT22;2585;48.696;10.066;2022-07-23T03:17:14;17.90;81.20
5134;DHT22;2585;48.696;10.066;2022-07-23T03:19:40;17.80;79.50
5134;DHT22;2585;48.696;10.066;2022-07-23T03:22:07;17.80;77.90
5134;DHT22;2585;48.696;10.066;2022-07-23T03:24:34;17.80;79.70
5134;DHT22;2585;48.696;10.066;2022-07-23T03:27:24;17.80;78.90
5134;DHT22;2585;48.696;10.066;2022-07-23T03:29:52;17.80;78.80
5134;DHT22;2585;48.696;10.066;2022-07-23T03:32:20;17.80;81.60
5134;DHT22;2585;48.696;10.066;2022-07-23T03:34:47;17.70;82.70
5134;DHT22;2585;48.696;10.066;2022-07-23T03:37:14;17.70;83.80
5134;DHT22;2585;48.696;10.066;2022-07-23T03:39:42;17.70;83.70
5134;DHT22;2585;48.696;10.066;2022-07-23T03:42:09;17.70;81.90
5134;DHT22;2585;48.696;10.066;2022-07-23T03:44:36;17.60;83.60
5134;DHT22;2585;48.696;10.066;2022-07-23T03:47:06;17.60;84.70
5134;DHT22;2585;48.696;10.066;2022-07-23T03:49:33;17.60;84.20
5134;DHT22;2585;48.696;10.066;2022-07-23T03:52:00;17.60;85.00
5134;DHT22;2585;48.696;10.066;2022-07-23T03:54:27;17.40;86.30
5134;DHT22;2585;48.696;10.066;2022-07-23T03:56:54;17.40;87.70
5134;DHT22;2585;48.696;10.066;2022-07-23T03:59:21;17.40;87.60
5134;DHT22;2585;48.696;10.066;2022-07-23T04:01:51;17.40;86.60
5134;DHT22;2585;48.696;10.066;2022-07-23T04:04:18;17.30;85.50
5134;DHT22;2585;48.696;10.066;2022-07-23T04:06:45;17.30;86.40
5134;DHT22;2585;48.696;10.066;2022-07-23T04:09:11;17.40;85.60
5134;DHT22;2585;48.696;10.066;2022-07-23T04:11:38;17.40;86.10
5134;DHT22;2585;48.696;10.066;2022-07-23T04:14:05;17.40;86.10
5134;DHT22;2585;48.696;10.066;2022-07-23T04:16:32;17.40;85.50
5134;DHT22;2585;48.696;10.066;2022-07-23T04:18:59;17.40;85.90
5134;DHT22;2585;48.696;10.066;2022-07-23T04:21:26;17.40;87.30
5134;DHT22;2585;48.696;10.066;2022-07-23T04:23:53;17.40;87.70
5134;DHT22;2585;48.696;10.066;2022-07-23T04:26:20;17.40;87.30
5134;DHT22;2585;48.696;10.066;2022-07-23T04:28:47;17.50;86.60
5134;DHT22;2585;48.696;10.066;2022-07-23T04:31:14;17.50;87.30
5134;DHT22;2585;48.696;10.066;2022-07-23T04:33:41;17.50;87.70
5134;DHT22;2585;48.696;10.066;2022-07-23T04:36:08;17.50;88.20
5134;DHT22;2585;48.696;10.066;2022-07-23T04:38:35;17.50;87.50
5134;DHT22;2585;48.696;10.066;2022-07-23T04:41:02;17.50;87.60
5134;DHT22;2585;48.696;10.066;2022-07-23T04:43:28;17.50;88.80
5134;DHT22;2585;48.696;10.066;2022-07-23T04:45:56;17.50;88.30
5134;DHT22;2585;48.696;10.066;2022-07-23T04:48:22;17.50;89.30
5134;DHT22;2585;48.696;10.066;2022-07-23T04:50:49;17.50;90.30
5134;DHT22;2585;48.696;10.066;2022-07-23T04:53:16;17.50;90.40
5134;DHT22;2585;48.696;10.066;2022-07-23T04:55:45;17.50;90.40
5134;DHT22;2585;48.696;10.066;2022-07-23T04:58:11;17.40;91.20
5134;DHT22;2585;48.696;10.066;2022-07-23T05:00:38;17.40;91.10
5134;DHT22;2585;48.696;10.066;2022-07-23T05:03:05;17.50;90.90
5134;DHT22;2585;48.696;10.066;2022-07-23T05:05:32;17.60;90.80
5134;DHT22;2585;48.696;10.066;2022-07-23T05:07:59;17.60;90.30
5134;DHT22;2585;48.696;10.066;2022-07-23T05:10:26;17.60;90.10
5134;DHT22;2585;48.696;10.066;2022-07-23T05:12:52;17.60;90.50
5134;DHT22;2585;48.696;10.066;2022-07-23T05:15:19;17.60;91.00
5134;DHT22;2585;48.696;10.066;2022-07-23T05:17:46;17.70;91.10
5134;DHT22;2585;48.696;10.066;2022-07-23T05:20:13;17.70;91.10
5134;DHT22;2585;48.696;10.066;2022-07-23T05:22:40;17.80;91.00
5134;DHT22;2585;48.696;10.066;2022-07-23T05:25:08;17.90;90.60
5134;DHT22;2585;48.696;10.066;2022-07-23T05:27:35;18.00;90.80
5134;DHT22;2585;48.696;10.066;2022-07-23T05:30:02;18.20;90.40
5134;DHT22;2585;48.696;10.066;2022-07-23T05:32:31;18.20;90.10
5134;DHT22;2585;48.696;10.066;2022-07-23T05:34:58;18.30;89.00
5134;DHT22;2585;48.696;10.066;2022-07-23T05:37:25;18.30;87.50
5134;DHT22;2585;48.696;10.066;2022-07-23T05:39:52;18.40;85.90
5134;DHT22;2585;48.696;10.066;2022-07-23T05:42:19;18.40;86.60
5134;DHT22;2585;48.696;10.066;2022-07-23T05:44:46;18.60;84.10
5134;DHT22;2585;48.696;10.066;2022-07-23T05:47:13;18.70;79.70
5134;DHT22;2585;48.696;10.066;2022-07-23T05:49:40;18.70;73.70
5134;DHT22;2585;48.696;10.066;2022-07-23T05:52:07;18.90;73.90
5134;DHT22;2585;48.696;10.066;2022-07-23T05:54:35;19.00;64.60
5134;DHT22;2585;48.696;10.066;2022-07-23T05:57:03;19.10;60.30
5134;DHT22;2585;48.696;10.066;2022-07-23T05:59:30;19.30;60.40
5134;DHT22;2585;48.696;10.066;2022-07-23T06:01:57;19.40;55.50
5134;DHT22;2585;48.696;10.066;2022-07-23T06:04:24;19.40;48.30
5134;DHT22;2585;48.696;10.066;2022-07-23T06:06:51;19.50;56.50
5134;DHT22;2585;48.696;10.066;2022-07-23T06:09:18;19.60;56.20
5134;DHT22;2585;48.696;10.066;2022-07-23T06:11:44;19.70;49.70
5134;DHT22;2585;48.696;10.066;2022-07-23T06:14:11;19.80;41.00
5134;DHT22;2585;48.696;10.066;2022-07-23T06:16:38;19.80;24.90
5134;DHT22;2585;48.696;10.066;2022-07-23T06:19:05;19.90;30.00
5134;DHT22;2585;48.696;10.066;2022-07-23T06:21:32;20.00;20.60
5134;DHT22;2585;48.696;10.066;2022-07-23T06:24:13;20.00;17.70
5134;DHT22;2585;48.696;10.066;2022-07-23T06:26:40;20.10;21.30
5134;DHT22;2585;48.696;10.066;2022-07-23T06:29:07;20.00;17.80
5134;DHT22;2585;48.696;10.066;2022-07-23T06:31:33;20.10;17.50
5134;DHT22;2585;48.696;10.066;2022-07-23T06:34:00;20.20;18.50
5134;DHT22;2585;48.696;10.066;2022-07-23T06:36:27;20.40;23.00
5134;DHT22;2585;48.696;10.066;2022-07-23T06:38:54;20.50;16.50
5134;DHT22;2585;48.696;10.066;2022-07-23T06:41:21;20.70;13.70
5134;DHT22;2585;48.696;10.066;2022-07-23T06:43:49;20.80;6.80
5134;DHT22;2585;48.696;10.066;2022-07-23T06:46:16;21.00;4.00
5134;DHT22;2585;48.696;10.066;2022-07-23T06:48:43;21.40;4.80
5134;DHT22;2585;48.696;10.066;2022-07-23T06:51:10;21.70;5.70
5134;DHT22;2585;48.696;10.066;2022-07-23T06:53:37;22.00;3.70
5134;DHT22;2585;48.696;10.066;2022-07-23T06:56:04;22.30;3.30
5134;DHT22;2585;48.696;10.066;2022-07-23T06:58:31;22.20;1.00
5134;DHT22;2585;48.696;10.066;2022-07-23T07:00:57;22.50;1.00
5134;DHT22;2585;48.696;10.066;2022-07-23T07:03:24;22.80;1.00
5134;DHT22;2585;48.696;10.066;2022-07-23T07:05:51;23.00;1.00
5134;DHT22;2585;48.696;10.066;2022-07-23T07:08:19;23.30;1.00
5134;DHT22;2585;48.696;10.066;2022-07-23T07:10:46;23.40;1.00
5134;DHT22;2585;48.696;10.066;2022-07-23T07:13:13;23.80;1.00
5134;DHT22;2585;48.696;10.066;2022-07-23T07:15:40;24.00;1.00
5134;DHT22;2585;48.696;10.066;2022-07-23T07:18:07;24.00;1.00
5134;DHT22;2585;48.696;10.066;2022-07-23T07:20:34;24.20;1.00
5134;DHT22;2585;48.696;10.066;2022-07-23T07:23:01;24.40;1.00
5134;DHT22;2585;48.696;10.066;2022-07-23T07:25:28;24.40;1.00
5134;DHT22;2585;48.696;10.066;2022-07-23T07:27:56;24.70;1.00
5134;DHT22;2585;48.696;10.066;2022-07-23T07:30:23;24.60;1.00
5134;DHT22;2585;48.696;10.066;2022-07-23T07:32:50;24.90;1.00
5134;DHT22;2585;48.696;10.066;2022-07-23T07:35:23;25.20;1.00
5134;DHT22;2585;48.696;10.066;2022-07-23T07:37:49;25.20;1.00
5134;DHT22;2585;48.696;10.066;2022-07-23T07:40:16;25.60;1.00
5134;DHT22;2585;48.696;10.066;2022-07-23T07:42:47;25.30;1.00
5134;DHT22;2585;48.696;10.066;2022-07-23T07:45:14;25.40;1.00
5134;DHT22;2585;48.696;10.066;2022-07-23T07:47:42;25.30;1.00
5134;DHT22;2585;48.696;10.066;2022-07-23T07:50:09;25.10;1.00
5134;DHT22;2585;48.696;10.066;2022-07-23T07:52:38;25.20;1.00
5134;DHT22;2585;48.696;10.066;2022-07-23T07:55:07;25.00;1.00
5134;DHT22;2585;48.696;10.066;2022-07-23T07:57:35;24.70;1.00
5134;DHT22;2585;48.696;10.066;2022-07-23T08:00:04;24.80;1.00
5134;DHT22;2585;48.696;10.066;2022-07-23T08:02:44;24.70;1.00
5134;DHT22;2585;48.696;10.066;2022-07-23T08:05:12;25.00;1.00
5134;DHT22;2585;48.696;10.066;2022-07-23T08:07:39;25.50;1.00
5134;DHT22;2585;48.696;10.066;2022-07-23T08:10:09;25.40;1.00
5134;DHT22;2585;48.696;10.066;2022-07-23T08:12:48;25.10;1.00
5134;DHT22;2585;48.696;10.066;2022-07-23T08:15:18;24.70;1.00
5134;DHT22;2585;48.696;10.066;2022-07-23T08:17:46;24.60;1.00
5134;DHT22;2585;48.696;10.066;2022-07-23T08:20:15;24.90;1.00
5134;DHT22;2585;48.696;10.066;2022-07-23T08:22:52;25.20;1.00
5134;DHT22;2585;48.696;10.066;2022-07-23T08:25:30;25.10;1.00
5134;DHT22;2585;48.696;10.066;2022-07-23T08:27:59;25.40;1.00
5134;DHT22;2585;48.696;10.066;2022-07-23T08:30:27;25.60;1.00
5134;DHT22;2585;48.696;10.066;2022-07-23T08:33:03;25.80;1.00
5134;DHT22;2585;48.696;10.066;2022-07-23T08:35:35;26.10;1.00
5134;DHT22;2585;48.696;10.066;2022-07-23T08:38:13;26.30;1.00
5134;DHT22;2585;48.696;10.066;2022-07-23T08:40:43;26.60;1.00
5134;DHT22;2585;48.696;10.066;2022-07-23T08:43:13;26.80;1.00
5134;DHT22;2585;48.696;10.066;2022-07-23T08:45:42;26.70;1.00
5134;DHT22;2585;48.696;10.066;2022-07-23T08:48:15;26.90;1.00
5134;DHT22;2585;48.696;10.066;2022-07-23T08:50:45;27.20;1.00
5134;DHT22;2585;48.696;10.066;2022-07-23T08:53:13;27.90;1.00
5134;DHT22;2585;48.696;10.066;2022-07-23T08:55:46;27.80;1.00
5134;DHT22;2585;48.696;10.066;2022-07-23T08:58:14;27.80;1.00
5134;DHT22;2585;48.696;10.066;2022-07-23T09:00:41;27.80;1.00
5134;DHT22;2585;48.696;10.066;2022-07-23T09:03:16;27.50;1.00
5134;DHT22;2585;48.696;10.066;2022-07-23T09:05:43;27.30;1.00
5134;DHT22;2585;48.696;10.066;2022-07-23T09:08:12;26.60;1.00
5134;DHT22;2585;48.696;10.066;2022-07-23T09:10:50;26.60;1.00
5134;DHT22;2585;48.696;10.066;2022-07-23T09:13:38;27.00;1.00
5134;DHT22;2585;48.696;10.066;2022-07-23T09:16:12;27.70;1.00
5134;DHT22;2585;48.696;10.066;2022-07-23T09:18:43;27.90;1.00
5134;DHT22;2585;48.696;10.066;2022-07-23T09:31:32;27.20;1.00
5134;DHT22;2585;48.696;10.066;2022-07-23T09:34:24;27.30;1.00
5134;DHT22;2585;48.696;10.066;2022-07-23T09:36:53;27.60;1.00
5134;DHT22;2585;48.696;10.066;2022-07-23T09:39:31;28.20;1.00
5134;DHT22;2585;48.696;10.066;2022-07-23T09:42:19;29.30;1.00
5134;DHT22;2585;48.696;10.066;2022-07-23T09:44:48;29.00;1.00
5134;DHT22;2585;48.696;10.066;2022-07-23T09:47:16;29.10;1.00
5134;DHT22;2585;48.696;10.066;2022-07-23T09:52:33;28.70;1.00
5134;DHT22;2585;48.696;10.066;2022-07-23T09:55:05;28.20;1.00
5134;DHT22;2585;48.696;10.066;2022-07-23T09:57:33;28.90;1.00
5134;DHT22;2585;48.696;10.066;2022-07-23T10:00:08;29.20;1.00
5134;DHT22;2585;48.696;10.066;2022-07-23T10:02:37;28.90;1.00
5134;DHT22;2585;48.696;10.066;2022-07-23T10:05:05;28.60;1.00
5134;DHT22;2585;48.696;10.066;2022-07-23T10:07:35;28.40;1.00
5134;DHT22;2585;48.696;10.066;2022-07-23T10:10:05;28.70;1.00
5134;DHT22;2585;48.696;10.066;2022-07-23T10:12:32;28.20;1.00
5134;DHT22;2585;48.696;10.066;2022-07-23T10:15:11;28.40;1.00
5134;DHT22;2585;48.696;10.066;2022-07-23T10:17:37;28.50;1.00
5134;DHT22;2585;48.696;10.066;2022-07-23T10:20:05;28.50;1.00
5134;DHT22;2585;48.696;10.066;2022-07-23T10:22:38;28.70;1.00
5134;DHT22;2585;48.696;10.066;2022-07-23T10:33:27;27.40;1.00
5134;DHT22;2585;48.696;10.066;2022-07-23T10:36:09;27.50;1.00
5134;DHT22;2585;48.696;10.066;2022-07-23T10:38:58;27.40;1.00
5134;DHT22;2585;48.696;10.066;2022-07-23T10:41:37;27.40;1.00
5134;DHT22;2585;48.696;10.066;2022-07-23T10:44:14;27.50;1.00
5134;DHT22;2585;48.696;10.066;2022-07-23T10:47:04;27.50;1.00
5134;DHT22;2585;48.696;10.066;2022-07-23T10:49:35;27.50;1.00
5134;DHT22;2585;48.696;10.066;2022-07-23T10:57:11;27.90;1.00
5134;DHT22;2585;48.696;10.066;2022-07-23T11:02:29;27.50;1.00
5134;DHT22;2585;48.696;10.066;2022-07-23T11:05:05;27.20;1.00
5134;DHT22;2585;48.696;10.066;2022-07-23T11:07:35;27.10;1.00
5134;DHT22;2585;48.696;10.066;2022-07-23T11:10:03;27.10;1.00
5134;DHT22;2585;48.696;10.066;2022-07-23T11:14:58;27.00;1.00
5134;DHT22;2585;48.696;10.066;2022-07-23T11:17:25;27.00;1.00
5134;DHT22;2585;48.696;10.066;2022-07-23T11:25:28;28.50;1.00
5134;DHT22;2585;48.696;10.066;2022-07-23T11:30:44;28.80;1.00
5134;DHT22;2585;48.696;10.066;2022-07-23T11:35:46;28.30;1.00
5134;DHT22;2585;48.696;10.066;2022-07-23T11:38:21;27.60;1.00
5134;DHT22;2585;48.696;10.066;2022-07-23T11:40:52;27.50;1.00
5134;DHT22;2585;48.696;10.066;2022-07-23T11:43:21;27.50;1.00
5134;DHT22;2585;48.696;10.066;2022-07-23T11:45:54;27.70;1.00
5134;DHT22;2585;48.696;10.066;2022-07-23T11:48:28;27.80;1.00
5134;DHT22;2585;48.696;10.066;2022-07-23T11:50:57;27.70;1.00
5134;DHT22;2585;48.696;10.066;2022-07-23T11:53:29;27.60;1.00
5134;DHT22;2585;48.696;10.066;2022-07-23T11:56:10;27.70;1.00
5134;DHT22;2585;48.696;10.066;2022-07-23T11:58:38;27.70;1.00
5134;DHT22;2585;48.696;10.066;2022-07-23T12:01:06;28.20;1.00
5134;DHT22;2585;48.696;10.066;2022-07-23T12:03:51;29.10;1.00
5134;DHT22;2585;48.696;10.066;2022-07-23T12:06:18;29.80;1.00
5134;DHT22;2585;48.696;10.066;2022-07-23T12:08:45;28.80;1.00
5134;DHT22;2585;48.696;10.066;2022-07-23T12:11:12;28.40;1.00
5134;DHT22;2585;48.696;10.066;2022-07-23T12:13:39;29.30;1.00
5134;DHT22;2585;48.696;10.066;2022-07-23T12:16:06;29.60;1.00
5134;DHT22;2585;48.696;10.066;2022-07-23T12:18:34;29.70;1.00
5134;DHT22;2585;48.696;10.066;2022-07-23T12:21:04;29.50;1.00
5134;DHT22;2585;48.696;10.066;2022-07-23T12:23:31;29.60;1.00
5134;DHT22;2585;48.696;10.066;2022-07-23T12:26:01;29.30;1.00
5134;DHT22;2585;48.696;10.066;2022-07-23T12:28:31;29.50;1.00
5134;DHT22;2585;48.696;10.066;2022-07-23T12:31:00;29.80;1.00
5134;DHT22;2585;48.696;10.066;2022-07-23T12:33:32;29.80;1.00
5134;DHT22;2585;48.696;10.066;2022-07-23T12:36:01;29.90;1.00
5134;DHT22;2585;48.696;10.066;2022-07-23T12:38:42;29.70;1.00
5134;DHT22;2585;48.696;10.066;2022-07-23T12:41:09;29.30;1.00
5134;DHT22;2585;48.696;10.066;2022-07-23T12:43:41;29.10;1.00
5134;DHT22;2585;48.696;10.066;2022-07-23T12:46:17;29.20;1.00
5134;DHT22;2585;48.696;10.066;2022-07-23T12:51:24;29.40;1.00
5134;DHT22;2585;48.696;10.066;2022-07-23T12:54:13;29.70;1.00
5134;DHT22;2585;48.696;10.066;2022-07-23T12:56:40;30.20;1.00
5134;DHT22;2585;48.696;10.066;2022-07-23T12:59:15;31.20;1.00
5134;DHT22;2585;48.696;10.066;2022-07-23T13:01:53;31.20;1.00
5134;DHT22;2585;48.696;10.066;2022-07-23T13:04:22;31.00;1.00
5134;DHT22;2585;48.696;10.066;2022-07-23T13:06:52;30.20;1.00
5134;DHT22;2585;48.696;10.066;2022-07-23T13:09:24;30.10;1.00
5134;DHT22;2585;48.696;10.066;2022-07-23T13:11:53;30.30;1.00
5134;DHT22;2585;48.696;10.066;2022-07-23T13:14:23;29.80;1.00
5134;DHT22;2585;48.696;10.066;2022-07-23T13:16:53;29.80;1.00
5134;DHT22;2585;48.696;10.066;2022-07-23T13:19:23;28.90;1.00
5134;DHT22;2585;48.696;10.066;2022-07-23T13:21:52;28.60;1.00
5134;DHT22;2585;48.696;10.066;2022-07-23T13:24:20;29.10;1.00
5134;DHT22;2585;48.696;10.066;2022-07-23T13:26:47;29.30;1.00
5134;DHT22;2585;48.696;10.066;2022-07-23T13:29:16;29.80;1.00
5134;DHT22;2585;48.696;10.066;2022-07-23T13:31:45;29.60;1.00
5134;DHT22;2585;48.696;10.066;2022-07-23T13:34:13;29.50;1.00
5134;DHT22;2585;48.696;10.066;2022-07-23T13:36:40;30.20;1.00
5134;DHT22;2585;48.696;10.066;2022-07-23T13:39:07;30.30;1.00
5134;DHT22;2585;48.696;10.066;2022-07-23T13:41:36;29.80;1.00
5134;DHT22;2585;48.696;10.066;2022-07-23T13:44:04;29.30;1.00
5134;DHT22;2585;48.696;10.066;2022-07-23T13:46:32;28.90;1.00
5134;DHT22;2585;48.696;10.066;2022-07-23T13:49:00;28.80;1.00
5134;DHT22;2585;48.696;10.066;2022-07-23T13:51:28;29.50;1.00
5134;DHT22;2585;48.696;10.066;2022-07-23T13:53:55;30.00;1.00
5134;DHT22;2585;48.696;10.066;2022-07-23T13:56:22;30.40;1.00
5134;DHT22;2585;48.696;10.066;2022-07-23T13:58:49;30.70;1.00
5134;DHT22;2585;48.696;10.066;2022-07-23T14:01:16;30.50;1.00
5134;DHT22;2585;48.696;10.066;2022-07-23T14:03:44;30.80;1.00
5134;DHT22;2585;48.696;10.066;2022-07-23T14:06:11;30.50;1.00
5134;DHT22;2585;48.696;10.066;2022-07-23T14:08:58;30.50;1.00
5134;DHT22;2585;48.696;10.066;2022-07-23T14:11:25;30.80;1.00
5134;DHT22;2585;48.696;10.066;2022-07-23T14:13:55;31.00;1.00
5134;DHT22;2585;48.696;10.066;2022-07-23T14:16:22;30.30;1.00
5134;DHT22;2585;48.696;10.066;2022-07-23T14:18:49;29.50;1.00
5134;DHT22;2585;48.696;10.066;2022-07-23T14:21:16;29.80;1.00
5134;DHT22;2585;48.696;10.066;2022-07-23T14:23:43;30.30;1.00
5134;DHT22;2585;48.696;10.066;2022-07-23T14:26:10;30.10;1.00
5134;DHT22;2585;48.696;10.066;2022-07-23T14:28:36;30.20;1.00
5134;DHT22;2585;48.696;10.066;2022-07-23T14:31:06;30.40;1.00
5134;DHT22;2585;48.696;10.066;2022-07-23T14:33:46;30.60;1.00
5134;DHT22;2585;48.696;10.066;2022-07-23T14:36:13;30.70;1.00
5134;DHT22;2585;48.696;10.066;2022-07-23T14:38:41;30.70;1.00
5134;DHT22;2585;48.696;10.066;2022-07-23T14:41:08;30.70;1.00
5134;DHT22;2585;48.696;10.066;2022-07-23T14:43:37;30.20;1.00
5134;DHT22;2585;48.696;10.066;2022-07-23T14:46:04;29.90;1.00
5134;DHT22;2585;48.696;10.066;2022-07-23T14:48:31;29.80;1.00
5134;DHT22;2585;48.696;10.066;2022-07-23T14:50:59;29.70;1.00
5134;DHT22;2585;48.696;10.066;2022-07-23T14:53:26;29.90;1.00
5134;DHT22;2585;48.696;10.066;2022-07-23T14:55:55;29.70;1.00
5134;DHT22;2585;48.696;10.066;2022-07-23T14:58:24;29.30;1.00
5134;DHT22;2585;48.696;10.066;2022-07-23T15:00:52;28.90;1.00
5134;DHT22;2585;48.696;10.066;2022-07-23T15:03:19;29.40;1.00
5134;DHT22;2585;48.696;10.066;2022-07-23T15:05:45;29.50;1.00
5134;DHT22;2585;48.696;10.066;2022-07-23T15:08:12;28.40;1.00
5134;DHT22;2585;48.696;10.066;2022-07-23T15:10:39;28.20;1.00
5134;DHT22;2585;48.696;10.066;2022-07-23T15:13:06;27.90;1.00
5134;DHT22;2585;48.696;10.066;2022-07-23T15:15:34;27.80;1.00
5134;DHT22;2585;48.696;10.066;2022-07-23T15:18:01;27.80;1.00
5134;DHT22;2585;48.696;10.066;2022-07-23T15:20:28;27.50;1.00
5134;DHT22;2585;48.696;10.066;2022-07-23T15:23:07;27.40;1.00
5134;DHT22;2585;48.696;10.066;2022-07-23T15:25:35;27.40;1.00
5134;DHT22;2585;48.696;10.066;2022-07-23T15:28:04;27.30;1.00
5134;DHT22;2585;48.696;10.066;2022-07-23T15:30:33;27.60;1.00
5134;DHT22;2585;48.696;10.066;2022-07-23T15:33:03;27.40;1.00
5134;DHT22;2585;48.696;10.066;2022-07-23T15:35:32;27.70;1.00
5134;DHT22;2585;48.696;10.066;2022-07-23T15:37:59;27.50;1.00
5134;DHT22;2585;48.696;10.066;2022-07-23T15:40:33;27.40;1.00
5134;DHT22;2585;48.696;10.066;2022-07-23T15:43:00;27.40;1.00
5134;DHT22;2585;48.696;10.066;2022-07-23T15:45:27;27.60;1.00
5134;DHT22;2585;48.696;10.066;2022-07-23T15:47:54;27.70;1.00
5134;DHT22;2585;48.696;10.066;2022-07-23T15:50:21;27.40;1.00
5134;DHT22;2585;48.696;10.066;2022-07-23T15:52:48;27.80;1.00
5134;DHT22;2585;48.696;10.066;2022-07-23T15:55:15;27.80;1.00
5134;DHT22;2585;48.696;10.066;2022-07-23T15:57:43;28.00;1.00
5134;DHT22;2585;48.696;10.066;2022-07-23T16:00:10;27.90;1.00
5134;DHT22;2585;48.696;10.066;2022-07-23T16:02:37;27.90;1.00
5134;DHT22;2585;48.696;10.066;2022-07-23T16:05:04;27.50;1.00
5134;DHT22;2585;48.696;10.066;2022-07-23T16:07:31;27.00;1.00
5134;DHT22;2585;48.696;10.066;2022-07-23T16:10:06;26.80;1.00
5134;DHT22;2585;48.696;10.066;2022-07-23T16:12:33;26.70;1.00
5134;DHT22;2585;48.696;10.066;2022-07-23T16:15:00;27.10;1.00
5134;DHT22;2585;48.696;10.066;2022-07-23T16:17:33;27.00;1.00
5134;DHT22;2585;48.696;10.066;2022-07-23T16:20:00;26.90;1.00
5134;DHT22;2585;48.696;10.066;2022-07-23T16:22:31;26.80;1.00
5134;DHT22;2585;48.696;10.066;2022-07-23T16:24:57;26.80;1.00
5134;DHT22;2585;48.696;10.066;2022-07-23T16:27:25;26.60;1.00
5134;DHT22;2585;48.696;10.066;2022-07-23T16:29:53;26.60;1.00
5134;DHT22;2585;48.696;10.066;2022-07-23T16:32:19;26.70;1.00
5134;DHT22;2585;48.696;10.066;2022-07-23T16:34:46;26.60;1.00
5134;DHT22;2585;48.696;10.066;2022-07-23T16:37:13;26.40;1.00
5134;DHT22;2585;48.696;10.066;2022-07-23T16:39:41;26.30;1.00
5134;DHT22;2585;48.696;10.066;2022-07-23T16:42:09;26.20;1.00
5134;DHT22;2585;48.696;10.066;2022-07-23T16:44:36;26.20;1.00
5134;DHT22;2585;48.696;10.066;2022-07-23T16:47:04;26.20;1.00
5134;DHT22;2585;48.696;10.066;2022-07-23T16:49:30;26.10;1.00